createdAt,value
2023-03-17T00:00:15.173Z, 39.92
2023-03-17T00:01:15.206Z, 39.95
2023-03-17T00:02:15.220Z, 39.91
2023-03-17T00:03:15.417Z, 39.93
2023-03-17T00:04:15.267Z, 39.86
2023-03-17T00:05:15.310Z, 39.79
2023-03-17T00:06:15.283Z, 39.82
2023-03-17T00:07:15.255Z, 39.84
2023-03-17T00:08:15.259Z, 39.89
2023-03-17T00:09:15.280Z, 39.82
2023-03-17T00:10:15.282Z, 39.76
2023-03-17T00:11:15.316Z, 39.80
2023-03-17T00:12:15.324Z, 39.75
2023-03-17T00:13:15.334Z, 39.80
2023-03-17T00:14:15.349Z, 39.77
2023-03-17T00:15:15.353Z, 39.78
2023-03-17T00:16:15.445Z, 39.74
2023-03-17T00:17:15.389Z, 39.74
2023-03-17T00:18:15.404Z, 39.68
2023-03-17T00:19:15.432Z, 39.65
2023-03-17T00:20:15.489Z, 39.66
2023-03-17T00:21:15.469Z, 39.67
2023-03-17T00:22:15.564Z, 39.66
2023-03-17T00:23:15.496Z, 39.67
2023-03-17T00:24:15.570Z, 39.68
2023-03-17T00:25:15.531Z, 39.67
2023-03-17T00:26:15.587Z, 39.63
2023-03-17T00:27:15.569Z, 39.61
2023-03-17T00:28:15.628Z, 39.64
2023-03-17T00:29:15.602Z, 39.56
2023-03-17T00:30:15.628Z, 39.60
2023-03-17T00:31:15.644Z, 39.55
2023-03-17T00:32:15.654Z, 39.51
2023-03-17T00:33:15.633Z, 39.54
2023-03-17T00:34:15.675Z, 39.54
2023-03-17T00:35:15.622Z, 39.55
2023-03-17T00:36:15.622Z, 39.55
2023-03-17T00:37:15.651Z, 39.52
2023-03-17T00:38:15.645Z, 39.53
2023-03-17T00:40:15.669Z, 39.48
2023-03-17T00:41:15.763Z, 39.50
2023-03-17T00:42:15.725Z, 39.46
2023-03-17T00:43:15.784Z, 39.46
2023-03-17T00:44:15.779Z, 39.43
2023-03-17T00:45:15.774Z, 39.44
2023-03-17T00:46:15.777Z, 39.41
2023-03-17T00:47:15.782Z, 39.42
2023-03-17T00:48:15.847Z, 39.37
2023-03-17T00:50:15.954Z, 39.36
2023-03-17T00:51:15.869Z, 39.35
2023-03-17T00:52:15.887Z, 39.34
2023-03-17T00:53:15.862Z, 39.29
2023-03-17T00:54:15.876Z, 39.30
2023-03-17T00:55:15.882Z, 39.26
2023-03-17T00:56:15.890Z, 39.22
2023-03-17T00:57:15.891Z, 39.28
2023-03-17T00:58:15.906Z, 39.25
2023-03-17T00:59:18.210Z, 39.29
2023-03-17T01:00:15.945Z, 39.25
2023-03-17T01:01:16.140Z, 39.22
2023-03-17T01:02:16.019Z, 39.21
2023-03-17T01:03:16.029Z, 39.18
2023-03-17T01:04:16.014Z, 39.17
2023-03-17T01:05:16.000Z, 39.18
2023-03-17T01:06:16.005Z, 39.20
2023-03-17T01:07:16.008Z, 39.20
2023-03-17T01:08:16.027Z, 39.20
2023-03-17T01:09:16.039Z, 39.14
2023-03-17T01:10:16.119Z, 39.10
2023-03-17T01:11:16.084Z, 39.11
2023-03-17T01:12:16.153Z, 39.04
2023-03-17T01:13:16.120Z, 39.08
2023-03-17T01:14:16.167Z, 39.14
2023-03-17T01:15:16.146Z, 39.08
2023-03-17T01:16:16.267Z, 39.12
2023-03-17T01:17:16.158Z, 39.07
2023-03-17T01:18:16.237Z, 39.08
2023-03-17T01:19:16.181Z, 39.03
2023-03-17T01:20:17.189Z, 38.95
2023-03-17T01:21:16.248Z, 38.99
2023-03-17T01:22:16.217Z, 39.02
2023-03-17T01:23:16.222Z, 39.05
2023-03-17T01:24:16.279Z, 38.99
2023-03-17T01:25:16.243Z, 38.97
2023-03-17T01:26:16.236Z, 38.94
2023-03-17T01:27:16.255Z, 38.91
2023-03-17T01:28:16.266Z, 38.92
2023-03-17T01:29:16.306Z, 38.88
2023-03-17T01:30:17.317Z, 38.85
2023-03-17T01:31:16.330Z, 38.80
2023-03-17T01:32:16.312Z, 38.82
2023-03-17T01:33:16.333Z, 38.85
2023-03-17T01:34:16.339Z, 38.84
2023-03-17T01:35:16.365Z, 38.82
2023-03-17T01:36:16.354Z, 38.82
2023-03-17T01:37:16.358Z, 38.83
2023-03-17T01:38:16.435Z, 38.80
2023-03-17T01:39:16.434Z, 38.79
2023-03-17T01:40:16.474Z, 38.81
2023-03-17T01:41:16.437Z, 38.77
2023-03-17T01:42:16.503Z, 38.74
2023-03-17T01:43:16.472Z, 38.71
2023-03-17T01:44:16.533Z, 38.74
2023-03-17T01:45:16.493Z, 38.73
2023-03-17T01:46:16.582Z, 38.73
2023-03-17T01:47:16.534Z, 38.67
2023-03-17T01:48:16.536Z, 38.66
2023-03-17T01:49:16.593Z, 38.62
2023-03-17T01:50:16.569Z, 38.63
2023-03-17T01:51:16.614Z, 38.65
2023-03-17T01:52:16.576Z, 38.64
2023-03-17T01:53:16.666Z, 38.60
2023-03-17T01:54:16.623Z, 38.61
2023-03-17T01:55:16.672Z, 38.64
2023-03-17T01:56:16.671Z, 38.62
2023-03-17T01:57:16.677Z, 38.63
2023-03-17T01:58:16.655Z, 38.57
2023-03-17T01:59:16.670Z, 38.60
2023-03-17T02:00:16.671Z, 38.54
2023-03-17T02:01:16.708Z, 38.50
2023-03-17T02:02:16.762Z, 38.54
2023-03-17T02:03:16.692Z, 38.51
2023-03-17T02:04:16.746Z, 38.55
2023-03-17T02:05:16.726Z, 38.53
2023-03-17T02:06:16.739Z, 38.50
2023-03-17T02:07:16.754Z, 38.51
2023-03-17T02:08:16.776Z, 38.47
2023-03-17T02:09:16.777Z, 38.42
2023-03-17T02:10:16.792Z, 38.42
2023-03-17T02:11:16.802Z, 38.38
2023-03-17T02:12:16.823Z, 38.41
2023-03-17T02:13:20.134Z, 38.32
2023-03-17T02:15:43.288Z, 38.36
2023-03-17T02:16:16.964Z, 38.40
2023-03-17T02:17:16.943Z, 38.37
2023-03-17T02:18:16.910Z, 38.35
2023-03-17T02:19:16.909Z, 38.35
2023-03-17T02:20:16.907Z, 38.34
2023-03-17T02:21:16.975Z, 38.36
2023-03-17T02:22:16.968Z, 38.31
2023-03-17T02:23:16.964Z, 38.28
2023-03-17T02:24:17.014Z, 38.27
2023-03-17T02:25:16.995Z, 38.32
2023-03-17T02:26:16.982Z, 38.29
2023-03-17T02:27:16.982Z, 38.24
2023-03-17T02:28:16.997Z, 38.26
2023-03-17T02:29:17.080Z, 38.26
2023-03-17T02:30:17.048Z, 38.24
2023-03-17T02:31:17.071Z, 38.21
2023-03-17T02:32:17.063Z, 38.19
2023-03-17T02:33:17.062Z, 38.19
2023-03-17T02:34:17.104Z, 38.21
2023-03-17T02:35:17.108Z, 38.22
2023-03-17T02:36:17.160Z, 38.21
2023-03-17T02:37:17.138Z, 38.21
2023-03-17T02:38:17.124Z, 38.17
2023-03-17T02:39:17.177Z, 38.20
2023-03-17T02:40:17.182Z, 38.16
2023-03-17T02:41:17.250Z, 38.11
2023-03-17T02:42:17.230Z, 38.15
2023-03-17T02:43:17.271Z, 38.18
2023-03-17T02:44:17.264Z, 38.18
2023-03-17T02:45:17.296Z, 38.10
2023-03-17T02:46:17.282Z, 38.13
2023-03-17T02:47:17.268Z, 38.11
2023-03-17T02:48:17.266Z, 38.14
2023-03-17T02:49:17.269Z, 38.09
2023-03-17T02:50:17.326Z, 38.08
2023-03-17T02:51:17.308Z, 38.14
2023-03-17T02:52:17.369Z, 38.14
2023-03-17T02:53:17.349Z, 38.13
2023-03-17T02:54:17.414Z, 38.16
2023-03-17T02:55:17.386Z, 38.12
2023-03-17T02:56:17.369Z, 38.07
2023-03-17T02:57:17.366Z, 38.04
2023-03-17T02:58:17.417Z, 38.02
2023-03-17T02:59:17.400Z, 38.01
2023-03-17T03:00:17.415Z, 37.96
2023-03-17T03:01:17.472Z, 37.97
2023-03-17T03:02:17.498Z, 37.94
2023-03-17T03:03:17.510Z, 37.92
2023-03-17T03:04:17.467Z, 37.92
2023-03-17T03:05:17.559Z, 37.95
2023-03-17T03:06:17.540Z, 37.89
2023-03-17T03:07:17.565Z, 37.85
2023-03-17T03:08:17.537Z, 37.87
2023-03-17T03:09:17.605Z, 37.87
2023-03-17T03:10:17.580Z, 37.84
2023-03-17T03:11:17.614Z, 37.78
2023-03-17T03:12:17.597Z, 37.84
2023-03-17T03:13:17.630Z, 37.81
2023-03-17T03:14:17.599Z, 37.79
2023-03-17T03:15:17.598Z, 37.76
2023-03-17T03:16:17.697Z, 37.76
2023-03-17T03:17:17.619Z, 37.78
2023-03-17T03:18:17.631Z, 37.80
2023-03-17T03:19:17.687Z, 37.75
2023-03-17T03:20:17.645Z, 37.71
2023-03-17T03:21:17.661Z, 37.73
2023-03-17T03:22:17.777Z, 37.74
2023-03-17T03:23:17.727Z, 37.74
2023-03-17T03:24:17.764Z, 37.73
2023-03-17T03:25:17.741Z, 37.71
2023-03-17T03:26:17.802Z, 37.72
2023-03-17T03:27:17.780Z, 37.68
2023-03-17T03:28:17.779Z, 37.64
2023-03-17T03:29:17.785Z, 37.61
2023-03-17T03:30:17.792Z, 37.65
2023-03-17T03:31:17.830Z, 37.62
2023-03-17T03:32:17.816Z, 37.59
2023-03-17T03:33:17.916Z, 37.56
2023-03-17T03:34:17.863Z, 37.50
2023-03-17T03:35:17.878Z, 37.49
2023-03-17T03:36:17.875Z, 37.47
2023-03-17T03:37:17.882Z, 37.43
2023-03-17T03:38:17.887Z, 37.46
2023-03-17T03:39:17.902Z, 37.45
2023-03-17T03:40:17.981Z, 37.50
2023-03-17T03:41:17.926Z, 37.51
2023-03-17T03:42:17.961Z, 37.50
2023-03-17T03:43:23.528Z, 37.46
2023-03-17T03:44:17.995Z, 37.50
2023-03-17T03:45:17.972Z, 37.51
2023-03-17T03:46:18.015Z, 37.46
2023-03-17T03:47:17.996Z, 37.44
2023-03-17T03:48:17.987Z, 37.39
2023-03-17T03:49:18.050Z, 37.38
2023-03-17T03:50:18.024Z, 37.38
2023-03-17T03:51:18.079Z, 37.36
2023-03-17T03:52:18.051Z, 37.31
2023-03-17T03:53:18.064Z, 37.30
2023-03-17T03:54:18.066Z, 37.33
2023-03-17T03:55:18.073Z, 37.34
2023-03-17T03:56:18.176Z, 37.32
2023-03-17T03:57:18.134Z, 37.33
2023-03-17T03:58:18.205Z, 37.36
2023-03-17T03:59:18.190Z, 37.35
2023-03-17T04:00:18.196Z, 37.32
2023-03-17T04:01:18.179Z, 37.30
2023-03-17T04:02:18.256Z, 37.22
2023-03-17T04:03:18.222Z, 37.20
2023-03-17T04:04:18.282Z, 37.24
2023-03-17T04:05:18.298Z, 37.27
2023-03-17T04:06:18.283Z, 37.28
2023-03-17T04:07:18.283Z, 37.25
2023-03-17T04:08:18.289Z, 37.25
2023-03-17T04:09:18.338Z, 37.19
2023-03-17T04:10:18.336Z, 37.17
2023-03-17T04:11:18.342Z, 37.15
2023-03-17T04:12:18.320Z, 37.12
2023-03-17T04:13:18.324Z, 37.14
2023-03-17T04:14:18.333Z, 37.13
2023-03-17T04:15:18.390Z, 37.14
2023-03-17T04:16:18.381Z, 37.11
2023-03-17T04:17:18.373Z, 37.05
2023-03-17T04:18:18.377Z, 37.10
2023-03-17T04:19:18.439Z, 37.13
2023-03-17T04:20:18.454Z, 37.14
2023-03-17T04:21:18.428Z, 37.09
2023-03-17T04:22:18.464Z, 37.08
2023-03-17T04:23:18.441Z, 37.11
2023-03-17T04:24:18.533Z, 37.09
2023-03-17T04:25:18.522Z, 37.08
2023-03-17T04:26:18.506Z, 37.12
2023-03-17T04:27:18.500Z, 37.07
2023-03-17T04:28:18.511Z, 37.07
2023-03-17T04:29:18.590Z, 37.04
2023-03-17T04:30:18.569Z, 37.01
2023-03-17T04:31:18.606Z, 37.01
2023-03-17T04:32:18.579Z, 37.95
2023-03-17T04:33:18.563Z, 39.25
2023-03-17T04:34:18.599Z, 40.14
2023-03-17T04:35:18.601Z, 40.53
2023-03-17T04:36:18.613Z, 40.80
2023-03-17T04:37:18.693Z, 41.00
2023-03-17T04:38:18.671Z, 41.15
2023-03-17T04:39:18.705Z, 41.28
2023-03-17T04:40:18.729Z, 41.38
2023-03-17T04:41:18.742Z, 41.50
2023-03-17T04:42:18.701Z, 41.59
2023-03-17T04:43:18.764Z, 41.66
2023-03-17T04:44:18.751Z, 41.71
2023-03-17T04:45:18.746Z, 41.72
2023-03-17T04:46:18.736Z, 41.73
2023-03-17T04:47:18.826Z, 41.71
2023-03-17T04:48:18.859Z, 41.68
2023-03-17T04:49:18.826Z, 41.64
2023-03-17T04:50:18.821Z, 41.61
2023-03-17T04:51:18.811Z, 41.57
2023-03-17T04:52:18.832Z, 41.51
2023-03-17T04:53:18.842Z, 41.44
2023-03-17T04:54:18.935Z, 41.38
2023-03-17T04:55:18.943Z, 41.24
2023-03-17T04:56:18.933Z, 41.19
2023-03-17T04:57:18.907Z, 44.65
2023-03-17T04:58:29.977Z, 51.58
2023-03-17T04:59:18.938Z, 53.73
2023-03-17T05:00:18.948Z, 52.42
2023-03-17T05:01:18.992Z, 51.19
2023-03-17T05:02:19.106Z, 50.52
2023-03-17T05:03:26.681Z, 49.43
2023-03-17T05:04:30.741Z, 48.28
2023-03-17T05:05:18.997Z, 47.39
2023-03-17T05:06:18.995Z, 46.61
2023-03-17T05:07:18.989Z, 46.00
2023-03-17T05:08:19.019Z, 45.50
2023-03-17T05:09:19.014Z, 44.96
2023-03-17T05:10:19.037Z, 44.45
2023-03-17T05:11:19.056Z, 43.93
2023-03-17T05:12:19.040Z, 43.37
2023-03-17T05:13:19.058Z, 42.83
2023-03-17T05:14:19.068Z, 42.34
2023-03-17T05:15:19.090Z, 41.91
2023-03-17T05:16:19.210Z, 41.56
2023-03-17T05:17:19.154Z, 41.28
2023-03-17T05:18:19.180Z, 41.07
2023-03-17T05:19:19.155Z, 44.89
2023-03-17T05:20:19.221Z, 51.24
2023-03-17T05:21:19.199Z, 54.05
2023-03-17T05:22:19.272Z, 53.89
2023-03-17T05:23:19.212Z, 52.84
2023-03-17T05:24:19.273Z, 52.17
2023-03-17T05:25:19.293Z, 51.51
2023-03-17T05:26:19.248Z, 50.87
2023-03-17T05:27:19.253Z, 50.21
2023-03-17T05:28:19.277Z, 49.61
2023-03-17T05:29:19.288Z, 48.99
2023-03-17T05:30:19.303Z, 48.39
2023-03-17T05:31:19.378Z, 47.82
2023-03-17T05:32:19.312Z, 47.25
2023-03-17T05:33:19.331Z, 47.04
2023-03-17T05:34:19.361Z, 50.25
2023-03-17T05:35:19.356Z, 52.58
2023-03-17T05:36:19.361Z, 55.17
2023-03-17T05:37:19.361Z, 58.38
2023-03-17T05:38:19.374Z, 63.87
2023-03-17T05:39:19.379Z, 62.76
2023-03-17T05:40:19.407Z, 52.74
2023-03-17T05:41:19.478Z, 53.64
2023-03-17T05:42:19.427Z, 54.79
2023-03-17T05:43:19.502Z, 56.98
2023-03-17T05:44:19.464Z, 59.93
2023-03-17T05:45:19.524Z, 68.02
2023-03-17T05:46:20.558Z, 56.57
2023-03-17T05:47:19.495Z, 53.50
2023-03-17T05:48:19.504Z, 54.70
2023-03-17T05:49:19.508Z, 55.90
2023-03-17T05:50:19.605Z, 58.52
2023-03-17T05:51:19.597Z, 60.47
2023-03-17T05:52:19.585Z, 61.81
2023-03-17T05:53:19.592Z, 62.93
2023-03-17T05:54:19.596Z, 65.98
2023-03-17T05:55:19.611Z, 66.41
2023-03-17T05:56:19.632Z, 66.09
2023-03-17T05:57:19.631Z, 65.30
2023-03-17T05:58:19.670Z, 64.47
2023-03-17T05:59:19.666Z, 64.15
2023-03-17T06:00:19.644Z, 63.58
2023-03-17T06:01:19.719Z, 62.39
2023-03-17T06:02:19.774Z, 61.42
2023-03-17T06:03:19.786Z, 60.86
2023-03-17T06:04:19.724Z, 60.26
2023-03-17T06:05:19.796Z, 59.63
2023-03-17T06:06:19.750Z, 58.79
2023-03-17T06:07:19.818Z, 58.09
2023-03-17T06:08:19.786Z, 57.58
2023-03-17T06:09:19.803Z, 57.11
2023-03-17T06:10:19.819Z, 56.61
2023-03-17T06:11:19.806Z, 56.10
2023-03-17T06:12:19.812Z, 55.63
2023-03-17T06:13:19.847Z, 55.19
2023-03-17T06:14:19.851Z, 54.74
2023-03-17T06:15:19.856Z, 54.23
2023-03-17T06:16:19.938Z, 53.71
2023-03-17T06:17:19.876Z, 53.35
2023-03-17T06:18:19.889Z, 52.94
2023-03-17T06:19:19.892Z, 52.80
2023-03-17T06:20:19.966Z, 52.60
2023-03-17T06:21:19.940Z, 52.25
2023-03-17T06:22:19.995Z, 51.90
2023-03-17T06:23:20.015Z, 51.58
2023-03-17T06:24:20.017Z, 51.34
2023-03-17T06:25:20.006Z, 51.07
2023-03-17T06:26:19.994Z, 50.81
2023-03-17T06:27:20.018Z, 50.63
2023-03-17T06:28:19.998Z, 50.42
2023-03-17T06:29:19.989Z, 50.25
2023-03-17T06:30:20.019Z, 50.07
2023-03-17T06:31:20.125Z, 49.90
2023-03-17T06:32:21.131Z, 49.65
2023-03-17T06:33:20.055Z, 49.52
2023-03-17T06:34:20.095Z, 49.35
2023-03-17T06:35:20.102Z, 49.17
2023-03-17T06:36:20.156Z, 49.05
2023-03-17T06:37:20.129Z, 48.89
2023-03-17T06:38:20.142Z, 48.73
2023-03-17T06:39:20.196Z, 48.62
2023-03-17T06:40:20.211Z, 48.44
2023-03-17T06:41:20.174Z, 48.32
2023-03-17T06:42:20.235Z, 48.17
2023-03-17T06:43:20.194Z, 48.00
2023-03-17T06:44:20.212Z, 47.90
2023-03-17T06:45:20.202Z, 47.76
2023-03-17T06:46:20.276Z, 47.60
2023-03-17T06:47:20.225Z, 47.44
2023-03-17T06:48:20.238Z, 47.33
2023-03-17T06:49:20.258Z, 47.20
2023-03-17T06:50:20.304Z, 47.06
2023-03-17T06:51:20.316Z, 46.86
2023-03-17T06:52:20.294Z, 46.74
2023-03-17T06:53:20.376Z, 46.67
2023-03-17T06:54:20.347Z, 46.50
2023-03-17T06:55:20.387Z, 46.38
2023-03-17T06:56:29.424Z, 46.30
2023-03-17T06:57:20.416Z, 46.17
2023-03-17T06:58:20.415Z, 46.07
2023-03-17T06:59:20.389Z, 45.97
2023-03-17T07:00:20.390Z, 45.88
2023-03-17T07:01:20.457Z, 45.80
2023-03-17T07:02:20.394Z, 45.73
2023-03-17T07:03:20.404Z, 45.64
2023-03-17T07:04:20.457Z, 45.56
2023-03-17T07:05:20.432Z, 45.44
2023-03-17T07:06:20.517Z, 45.36
2023-03-17T07:07:20.503Z, 45.21
2023-03-17T07:08:20.502Z, 45.15
2023-03-17T07:09:20.500Z, 45.06
2023-03-17T07:10:20.559Z, 44.99
2023-03-17T07:11:20.519Z, 44.92
2023-03-17T07:12:20.553Z, 44.82
2023-03-17T07:13:20.542Z, 44.77
2023-03-17T07:14:20.555Z, 44.64
2023-03-17T07:15:20.579Z, 44.52
2023-03-17T07:16:20.580Z, 44.43
2023-03-17T07:17:20.578Z, 44.40
2023-03-17T07:18:20.609Z, 44.35
2023-03-17T07:19:20.706Z, 44.25
2023-03-17T07:20:20.662Z, 44.17
2023-03-17T07:21:20.638Z, 44.15
2023-03-17T07:22:20.653Z, 44.06
2023-03-17T07:23:20.652Z, 43.98
2023-03-17T07:24:20.732Z, 43.93
2023-03-17T07:25:20.742Z, 43.84
2023-03-17T07:26:20.764Z, 43.79
2023-03-17T07:27:22.848Z, 43.71
2023-03-17T07:28:20.729Z, 43.64
2023-03-17T07:29:20.742Z, 43.60
2023-03-17T07:30:20.800Z, 43.57
2023-03-17T07:31:20.814Z, 43.48
2023-03-17T07:32:20.834Z, 43.41
2023-03-17T07:33:20.864Z, 43.33
2023-03-17T07:34:20.873Z, 43.30
2023-03-17T07:35:21.013Z, 43.24
2023-03-17T07:36:20.888Z, 43.21
2023-03-17T07:37:20.952Z, 43.17
2023-03-17T07:38:20.909Z, 43.09
2023-03-17T07:39:20.957Z, 43.07
2023-03-17T07:40:20.943Z, 43.03
2023-03-17T07:41:20.960Z, 42.99
2023-03-17T07:42:20.940Z, 42.90
2023-03-17T07:43:20.966Z, 42.85
2023-03-17T07:44:20.952Z, 42.79
2023-03-17T07:45:20.971Z, 42.75
2023-03-17T07:46:21.073Z, 42.68
2023-03-17T07:47:20.998Z, 42.61
2023-03-17T07:48:21.110Z, 42.59
2023-03-17T07:49:38.197Z, 42.53
2023-03-17T07:50:21.078Z, 42.47
2023-03-17T07:51:21.102Z, 42.47
2023-03-17T07:52:21.085Z, 42.34
2023-03-17T07:53:21.060Z, 42.30
2023-03-17T07:54:21.148Z, 42.22
2023-03-17T07:55:21.113Z, 42.19
2023-03-17T07:56:21.107Z, 42.16
2023-03-17T07:57:21.185Z, 42.11
2023-03-17T07:58:21.128Z, 42.10
2023-03-17T07:59:21.101Z, 42.08
2023-03-17T08:00:21.132Z, 42.03
2023-03-17T08:01:21.227Z, 41.99
2023-03-17T08:02:21.252Z, 41.89
2023-03-17T08:03:21.334Z, 41.87
2023-03-17T08:04:21.240Z, 41.85
2023-03-17T08:05:21.284Z, 41.85
2023-03-17T08:06:21.270Z, 41.79
2023-03-17T08:07:21.291Z, 41.80
2023-03-17T08:08:21.246Z, 41.74
2023-03-17T08:09:21.268Z, 41.70
2023-03-17T08:10:21.355Z, 41.65
2023-03-17T08:11:21.362Z, 41.59
2023-03-17T08:12:21.349Z, 41.53
2023-03-17T08:13:21.361Z, 41.47
2023-03-17T08:14:21.400Z, 41.44
2023-03-17T08:15:21.371Z, 41.35
2023-03-17T08:16:21.414Z, 41.34
2023-03-17T08:17:21.363Z, 41.29
2023-03-17T08:18:21.433Z, 41.28
2023-03-17T08:19:21.450Z, 41.25
2023-03-17T08:20:21.422Z, 41.18
2023-03-17T08:21:21.435Z, 41.16
2023-03-17T08:22:21.425Z, 41.15
2023-03-17T08:23:21.451Z, 41.09
2023-03-17T08:24:21.481Z, 41.07
2023-03-17T08:25:21.447Z, 41.05
2023-03-17T08:26:21.470Z, 41.00
2023-03-17T08:27:21.463Z, 41.03
2023-03-17T08:28:21.490Z, 40.93
2023-03-17T08:29:21.543Z, 40.95
2023-03-17T08:30:21.614Z, 40.95
2023-03-17T08:31:21.672Z, 40.81
2023-03-17T08:32:21.584Z, 40.79
2023-03-17T08:33:21.646Z, 40.80
2023-03-17T08:34:21.631Z, 40.74
2023-03-17T08:35:21.654Z, 40.72
2023-03-17T08:36:21.615Z, 40.73
2023-03-17T08:37:21.661Z, 40.66
2023-03-17T08:38:21.643Z, 40.61
2023-03-17T08:39:21.711Z, 40.63
2023-03-17T08:40:21.708Z, 40.56
2023-03-17T08:41:21.697Z, 40.55
2023-03-17T08:42:21.720Z, 40.53
2023-03-17T08:43:21.757Z, 40.54
2023-03-17T08:44:21.678Z, 40.50
2023-03-17T08:45:21.688Z, 40.46
2023-03-17T08:46:21.719Z, 40.44
2023-03-17T08:47:21.780Z, 40.47
2023-03-17T08:48:21.729Z, 40.53
2023-03-17T08:49:21.750Z, 40.50
2023-03-17T08:50:21.758Z, 40.44
2023-03-17T08:51:24.374Z, 40.35
2023-03-17T08:52:21.837Z, 40.30
2023-03-17T08:53:21.790Z, 40.27
2023-03-17T08:54:21.868Z, 40.26
2023-03-17T08:55:21.878Z, 40.21
2023-03-17T08:56:21.903Z, 40.17
2023-03-17T08:57:22.068Z, 40.19
2023-03-17T08:58:21.908Z, 40.16
2023-03-17T08:59:21.913Z, 40.10
2023-03-17T09:00:21.923Z, 40.03
2023-03-17T09:01:21.975Z, 40.00
2023-03-17T09:02:21.973Z, 39.93
2023-03-17T09:03:21.941Z, 39.95
2023-03-17T09:04:21.938Z, 39.97
2023-03-17T09:05:22.001Z, 39.96
2023-03-17T09:06:21.995Z, 39.93
2023-03-17T09:07:22.103Z, 39.95
2023-03-17T09:08:22.077Z, 39.91
2023-03-17T09:09:22.081Z, 39.86
2023-03-17T09:10:22.095Z, 39.86
2023-03-17T09:11:22.069Z, 39.85
2023-03-17T09:12:22.077Z, 39.78
2023-03-17T09:13:22.103Z, 39.76
2023-03-17T09:14:22.103Z, 39.78
2023-03-17T09:15:22.135Z, 39.78
2023-03-17T09:16:22.213Z, 39.72
2023-03-17T09:17:22.149Z, 39.66
2023-03-17T09:18:22.262Z, 39.67
2023-03-17T09:19:22.115Z, 39.62
2023-03-17T09:20:22.151Z, 39.58
2023-03-17T09:21:22.141Z, 39.51
2023-03-17T09:22:22.145Z, 39.57
2023-03-17T09:23:22.145Z, 39.56
2023-03-17T09:24:22.237Z, 39.48
2023-03-17T09:25:22.220Z, 39.45
2023-03-17T09:26:22.198Z, 39.45
2023-03-17T09:27:22.208Z, 39.47
2023-03-17T09:28:22.224Z, 39.47
2023-03-17T09:29:22.219Z, 39.42
2023-03-17T09:30:22.246Z, 39.46
2023-03-17T09:31:22.283Z, 39.40
2023-03-17T09:32:22.272Z, 39.38
2023-03-17T09:33:22.315Z, 39.32
2023-03-17T09:34:22.305Z, 39.33
2023-03-17T09:35:22.324Z, 39.32
2023-03-17T09:36:22.309Z, 39.30
2023-03-17T09:37:22.470Z, 39.26
2023-03-17T09:38:22.351Z, 39.23
2023-03-17T09:39:22.358Z, 39.18
2023-03-17T09:40:22.418Z, 39.19
2023-03-17T09:41:22.394Z, 39.11
2023-03-17T09:42:22.415Z, 39.12
2023-03-17T09:43:22.404Z, 39.07
2023-03-17T09:44:22.451Z, 39.08
2023-03-17T09:45:22.440Z, 39.11
2023-03-17T09:46:22.551Z, 39.14
2023-03-17T09:47:22.440Z, 39.08
2023-03-17T09:48:22.447Z, 39.06
2023-03-17T09:49:22.453Z, 39.02
2023-03-17T09:50:22.477Z, 39.01
2023-03-17T09:51:22.486Z, 39.06
2023-03-17T09:52:22.525Z, 39.00
2023-03-17T09:53:22.514Z, 38.95
2023-03-17T09:54:22.565Z, 38.96
2023-03-17T09:55:22.556Z, 38.89
2023-03-17T09:56:22.555Z, 38.86
2023-03-17T09:57:22.576Z, 38.86
2023-03-17T09:58:22.576Z, 38.83
2023-03-17T09:59:22.577Z, 38.81
2023-03-17T10:00:22.704Z, 38.83
2023-03-17T10:01:22.752Z, 38.80
2023-03-17T10:02:22.682Z, 38.78
2023-03-17T10:03:22.665Z, 38.75
2023-03-17T10:04:22.666Z, 38.72
2023-03-17T10:05:22.715Z, 38.68
2023-03-17T10:06:22.671Z, 38.64
2023-03-17T10:07:22.687Z, 38.57
2023-03-17T10:08:31.236Z, 38.54
2023-03-17T10:09:25.418Z, 38.53
2023-03-17T10:10:22.748Z, 38.56
2023-03-17T10:11:22.728Z, 38.51
2023-03-17T10:12:22.737Z, 38.51
2023-03-17T10:13:22.769Z, 38.53
2023-03-17T10:14:22.827Z, 38.54
2023-03-17T10:15:22.808Z, 38.49
2023-03-17T10:16:22.855Z, 38.45
2023-03-17T10:17:22.793Z, 38.44
2023-03-17T10:18:22.883Z, 38.41
2023-03-17T10:19:22.858Z, 38.37
2023-03-17T10:20:22.900Z, 38.34
2023-03-17T10:21:22.866Z, 38.33
2023-03-17T10:22:22.882Z, 38.31
2023-03-17T10:23:22.891Z, 38.30
2023-03-17T10:24:22.884Z, 38.27
2023-03-17T10:25:22.908Z, 38.18
2023-03-17T10:26:22.932Z, 38.16
2023-03-17T10:27:22.937Z, 38.16
2023-03-17T10:28:22.956Z, 38.16
2023-03-17T10:29:22.941Z, 38.16
2023-03-17T10:30:22.968Z, 38.14
2023-03-17T10:31:23.027Z, 38.13
2023-03-17T10:32:22.979Z, 38.15
2023-03-17T10:33:23.020Z, 38.14
2023-03-17T10:34:23.027Z, 38.13
2023-03-17T10:35:23.026Z, 38.11
2023-03-17T10:36:23.028Z, 38.09
2023-03-17T10:37:23.095Z, 38.03
2023-03-17T10:38:23.073Z, 38.02
2023-03-17T10:39:23.110Z, 38.00
2023-03-17T10:40:23.112Z, 37.98
2023-03-17T10:41:23.099Z, 37.99
2023-03-17T10:42:23.109Z, 37.98
2023-03-17T10:43:23.158Z, 37.95
2023-03-17T10:44:23.195Z, 37.90
2023-03-17T10:45:23.173Z, 37.87
2023-03-17T10:46:23.331Z, 37.85
2023-03-17T10:47:23.172Z, 37.85
2023-03-17T10:48:23.168Z, 37.81
2023-03-17T10:49:23.194Z, 37.79
2023-03-17T10:50:23.246Z, 37.79
2023-03-17T10:51:23.250Z, 37.80
2023-03-17T10:52:23.289Z, 37.77
2023-03-17T10:53:23.323Z, 37.70
2023-03-17T10:54:23.285Z, 37.71
2023-03-17T10:55:23.275Z, 37.76
2023-03-17T10:56:23.292Z, 37.78
2023-03-17T10:57:23.273Z, 37.70
2023-03-17T10:58:23.269Z, 37.67
2023-03-17T10:59:23.292Z, 37.69
2023-03-17T11:00:23.369Z, 37.68
2023-03-17T11:01:23.312Z, 37.66
2023-03-17T11:02:23.320Z, 38.45
2023-03-17T11:03:23.463Z, 39.48
2023-03-17T11:04:23.353Z, 39.73
2023-03-17T11:05:23.421Z, 39.72
2023-03-17T11:06:23.415Z, 39.69
2023-03-17T11:07:23.403Z, 39.69
2023-03-17T11:08:23.475Z, 39.56
2023-03-17T11:09:23.433Z, 39.10
2023-03-17T11:10:23.501Z, 38.55
2023-03-17T11:11:23.487Z, 38.01
2023-03-17T11:12:23.537Z, 37.44
2023-03-17T11:13:23.491Z, 36.96
2023-03-17T11:14:23.565Z, 36.61
2023-03-17T11:15:23.534Z, 36.32
2023-03-17T11:16:23.656Z, 36.12
2023-03-17T11:17:23.545Z, 35.97
2023-03-17T11:18:23.617Z, 35.86
2023-03-17T11:19:23.575Z, 35.80
2023-03-17T11:20:23.574Z, 35.69
2023-03-17T11:21:23.647Z, 35.60
2023-03-17T11:22:23.606Z, 35.56
2023-03-17T11:23:23.680Z, 35.52
2023-03-17T11:24:23.632Z, 35.51
2023-03-17T11:25:23.767Z, 35.50
2023-03-17T11:26:23.648Z, 35.52
2023-03-17T11:27:23.658Z, 35.50
2023-03-17T11:28:23.647Z, 35.48
2023-03-17T11:29:23.661Z, 35.48
2023-03-17T11:30:23.743Z, 35.47
2023-03-17T11:31:23.802Z, 35.41
2023-03-17T11:32:23.733Z, 35.25
2023-03-17T11:33:23.790Z, 35.16
2023-03-17T11:34:23.767Z, 35.08
2023-03-17T11:35:23.800Z, 34.89
2023-03-17T11:36:23.782Z, 34.74
2023-03-17T11:37:23.777Z, 34.57
2023-03-17T11:38:23.841Z, 34.44
2023-03-17T11:39:23.821Z, 34.34
2023-03-17T11:40:23.855Z, 34.27
2023-03-17T11:41:23.813Z, 34.26
2023-03-17T11:42:23.891Z, 34.20
2023-03-17T11:43:23.868Z, 34.17
2023-03-17T11:44:23.871Z, 34.07
2023-03-17T11:45:23.863Z, 34.02
2023-03-17T11:46:23.940Z, 33.98
2023-03-17T11:47:23.885Z, 33.94
2023-03-17T11:48:23.904Z, 33.88
2023-03-17T11:49:23.979Z, 33.84
2023-03-17T11:50:23.961Z, 33.81
2023-03-17T11:51:23.941Z, 33.79
2023-03-17T11:52:23.955Z, 33.75
2023-03-17T11:53:23.952Z, 33.70
2023-03-17T11:54:23.972Z, 33.68
2023-03-17T11:55:23.986Z, 33.67
2023-03-17T11:56:23.960Z, 33.66
2023-03-17T11:57:24.019Z, 33.66
2023-03-17T11:58:24.003Z, 33.66
2023-03-17T11:59:24.017Z, 33.61
2023-03-17T12:00:24.089Z, 33.57
2023-03-17T12:01:24.045Z, 33.55
2023-03-17T12:02:24.119Z, 33.52
2023-03-17T12:03:24.110Z, 33.50
2023-03-17T12:04:24.169Z, 33.49
2023-03-17T12:05:24.105Z, 33.45
2023-03-17T12:06:24.136Z, 33.45
2023-03-17T12:07:24.175Z, 33.44
2023-03-17T12:08:24.129Z, 33.48
2023-03-17T12:09:24.144Z, 33.45
2023-03-17T12:10:24.170Z, 33.46
2023-03-17T12:11:24.195Z, 33.43
2023-03-17T12:12:24.186Z, 33.41
2023-03-17T12:13:24.185Z, 33.37
2023-03-17T12:14:24.189Z, 33.36
2023-03-17T12:15:24.277Z, 33.36
2023-03-17T12:16:24.239Z, 33.36
2023-03-17T12:17:26.531Z, 33.34
2023-03-17T12:18:24.272Z, 33.33
2023-03-17T12:19:24.312Z, 33.32
2023-03-17T12:20:24.291Z, 33.25
2023-03-17T12:21:24.297Z, 33.25
2023-03-17T12:22:24.291Z, 33.26
2023-03-17T12:23:24.367Z, 33.24
2023-03-17T12:24:24.382Z, 33.21
2023-03-17T12:25:24.373Z, 33.22
2023-03-17T12:26:24.359Z, 33.23
2023-03-17T12:27:24.384Z, 33.22
2023-03-17T12:28:24.423Z, 33.22
2023-03-17T12:29:24.414Z, 33.20
2023-03-17T12:30:24.452Z, 33.20
2023-03-17T12:31:24.485Z, 33.17